sensor_id;sensor_type;location;lat;lon;timestamp;P1;durP1;ratioP1;P2;durP2;ratioP2
14100;SDS011;7127;49.372;8.166;2022-08-03T00:01:02;1.15;;;0.90;;
14100;SDS011;7127;49.372;8.166;2022-08-03T00:03:29;0.73;;;0.73;;
14100;SDS011;7127;49.372;8.166;2022-08-03T00:05:58;1.05;;;0.95;;
14100;SDS011;7127;49.372;8.166;2022-08-03T00:08:25;0.90;;;0.90;;
14100;SDS011;7127;49.372;8.166;2022-08-03T00:10:52;1.10;;;1.00;;
14100;SDS011;7127;49.372;8.166;2022-08-03T00:13:19;1.08;;;0.98;;
14100;SDS011;7127;49.372;8.166;2022-08-03T00:15:46;1.30;;;1.20;;
14100;SDS011;7127;49.372;8.166;2022-08-03T00:18:13;0.87;;;0.80;;
14100;SDS011;7127;49.372;8.166;2022-08-03T00:20:40;1.03;;;1.00;;
14100;SDS011;7127;49.372;8.166;2022-08-03T00:23:09;0.80;;;0.80;;
14100;SDS011;7127;49.372;8.166;2022-08-03T00:25:36;0.90;;;0.90;;
14100;SDS011;7127;49.372;8.166;2022-08-03T00:28:03;1.33;;;0.90;;
14100;SDS011;7127;49.372;8.166;2022-08-03T00:30:31;0.80;;;0.80;;
14100;SDS011;7127;49.372;8.166;2022-08-03T00:32:59;0.83;;;0.83;;
14100;SDS011;7127;49.372;8.166;2022-08-03T00:35:26;0.80;;;0.80;;
14100;SDS011;7127;49.372;8.166;2022-08-03T00:37:54;0.93;;;0.80;;
14100;SDS011;7127;49.372;8.166;2022-08-03T00:40:22;0.87;;;0.87;;
14100;SDS011;7127;49.372;8.166;2022-08-03T00:42:51;0.97;;;0.90;;
14100;SDS011;7127;49.372;8.166;2022-08-03T00:45:20;0.90;;;0.90;;
14100;SDS011;7127;49.372;8.166;2022-08-03T00:47:48;1.17;;;1.07;;
14100;SDS011;7127;49.372;8.166;2022-08-03T00:50:15;0.90;;;0.90;;
14100;SDS011;7127;49.372;8.166;2022-08-03T00:52:43;0.77;;;0.77;;
14100;SDS011;7127;49.372;8.166;2022-08-03T00:55:11;1.13;;;1.03;;
14100;SDS011;7127;49.372;8.166;2022-08-03T00:57:40;0.80;;;0.80;;
14100;SDS011;7127;49.372;8.166;2022-08-03T01:00:08;1.27;;;1.13;;
14100;SDS011;7127;49.372;8.166;2022-08-03T01:02:38;1.42;;;1.00;;
14100;SDS011;7127;49.372;8.166;2022-08-03T01:05:05;1.03;;;1.03;;
14100;SDS011;7127;49.372;8.166;2022-08-03T01:07:36;1.17;;;1.07;;
14100;SDS011;7127;49.372;8.166;2022-08-03T01:10:13;1.20;;;1.10;;
14100;SDS011;7127;49.372;8.166;2022-08-03T01:12:51;1.00;;;0.90;;
14100;SDS011;7127;49.372;8.166;2022-08-03T01:15:27;1.53;;;1.10;;
14100;SDS011;7127;49.372;8.166;2022-08-03T01:18:02;0.80;;;0.80;;
14100;SDS011;7127;49.372;8.166;2022-08-03T01:20:35;1.10;;;1.00;;
14100;SDS011;7127;49.372;8.166;2022-08-03T01:26:12;0.80;;;0.80;;
14100;SDS011;7127;49.372;8.166;2022-08-03T01:29:11;2.17;;;1.10;;
14100;SDS011;7127;49.372;8.166;2022-08-03T01:32:01;0.80;;;0.80;;
14100;SDS011;7127;49.372;8.166;2022-08-03T01:34:35;0.80;;;0.80;;
14100;SDS011;7127;49.372;8.166;2022-08-03T01:37:08;1.53;;;1.17;;
14100;SDS011;7127;49.372;8.166;2022-08-03T01:39:37;0.93;;;0.80;;
14100;SDS011;7127;49.372;8.166;2022-08-03T01:42:06;1.70;;;0.80;;
14100;SDS011;7127;49.372;8.166;2022-08-03T01:44:37;2.07;;;0.97;;
14100;SDS011;7127;49.372;8.166;2022-08-03T01:47:09;0.90;;;0.90;;
14100;SDS011;7127;49.372;8.166;2022-08-03T01:49:38;1.00;;;0.80;;
14100;SDS011;7127;49.372;8.166;2022-08-03T01:52:08;0.90;;;0.90;;
14100;SDS011;7127;49.372;8.166;2022-08-03T01:54:43;0.87;;;0.80;;
14100;SDS011;7127;49.372;8.166;2022-08-03T01:57:11;1.20;;;1.10;;
14100;SDS011;7127;49.372;8.166;2022-08-03T01:59:40;1.33;;;0.90;;
14100;SDS011;7127;49.372;8.166;2022-08-03T02:02:09;0.93;;;0.90;;
14100;SDS011;7127;49.372;8.166;2022-08-03T02:04:39;1.10;;;1.00;;
14100;SDS011;7127;49.372;8.166;2022-08-03T02:07:07;0.80;;;0.80;;
14100;SDS011;7127;49.372;8.166;2022-08-03T02:09:36;0.87;;;0.87;;
14100;SDS011;7127;49.372;8.166;2022-08-03T02:12:06;0.93;;;0.93;;
14100;SDS011;7127;49.372;8.166;2022-08-03T02:14:35;0.93;;;0.90;;
14100;SDS011;7127;49.372;8.166;2022-08-03T02:17:02;0.93;;;0.87;;
14100;SDS011;7127;49.372;8.166;2022-08-03T02:19:31;0.93;;;0.90;;
14100;SDS011;7127;49.372;8.166;2022-08-03T02:21:59;0.70;;;0.70;;
14100;SDS011;7127;49.372;8.166;2022-08-03T02:24:27;0.80;;;0.80;;
14100;SDS011;7127;49.372;8.166;2022-08-03T02:26:56;1.17;;;1.07;;
14100;SDS011;7127;49.372;8.166;2022-08-03T02:29:26;1.37;;;0.90;;
14100;SDS011;7127;49.372;8.166;2022-08-03T02:31:57;1.00;;;0.90;;
14100;SDS011;7127;49.372;8.166;2022-08-03T02:34:26;0.90;;;0.90;;
14100;SDS011;7127;49.372;8.166;2022-08-03T02:36:58;1.17;;;1.00;;
14100;SDS011;7127;49.372;8.166;2022-08-03T02:39:27;0.93;;;0.87;;
14100;SDS011;7127;49.372;8.166;2022-08-03T02:41:56;1.10;;;1.00;;
14100;SDS011;7127;49.372;8.166;2022-08-03T02:44:28;1.10;;;0.90;;
14100;SDS011;7127;49.372;8.166;2022-08-03T02:46:58;0.80;;;0.80;;
14100;SDS011;7127;49.372;8.166;2022-08-03T02:49:28;0.73;;;0.73;;
14100;SDS011;7127;49.372;8.166;2022-08-03T02:51:58;1.10;;;1.00;;
14100;SDS011;7127;49.372;8.166;2022-08-03T02:54:26;0.90;;;0.90;;
14100;SDS011;7127;49.372;8.166;2022-08-03T02:56:55;1.27;;;1.17;;
14100;SDS011;7127;49.372;8.166;2022-08-03T02:59:24;0.70;;;0.70;;
14100;SDS011;7127;49.372;8.166;2022-08-03T03:01:53;0.80;;;0.80;;
14100;SDS011;7127;49.372;8.166;2022-08-03T03:04:21;1.10;;;1.00;;
14100;SDS011;7127;49.372;8.166;2022-08-03T03:06:48;0.83;;;0.83;;
14100;SDS011;7127;49.372;8.166;2022-08-03T03:09:18;1.30;;;1.10;;
14100;SDS011;7127;49.372;8.166;2022-08-03T03:11:45;0.70;;;0.70;;
14100;SDS011;7127;49.372;8.166;2022-08-03T03:14:16;0.90;;;0.90;;
14100;SDS011;7127;49.372;8.166;2022-08-03T03:16:44;1.00;;;1.00;;
14100;SDS011;7127;49.372;8.166;2022-08-03T03:19:13;1.23;;;1.13;;
14100;SDS011;7127;49.372;8.166;2022-08-03T03:21:42;1.17;;;1.10;;
14100;SDS011;7127;49.372;8.166;2022-08-03T03:24:09;4.57;;;1.10;;
14100;SDS011;7127;49.372;8.166;2022-08-03T03:26:38;1.00;;;1.00;;
14100;SDS011;7127;49.372;8.166;2022-08-03T03:29:06;0.80;;;0.80;;
14100;SDS011;7127;49.372;8.166;2022-08-03T03:31:34;1.20;;;0.90;;
14100;SDS011;7127;49.372;8.166;2022-08-03T03:34:01;1.07;;;0.90;;
14100;SDS011;7127;49.372;8.166;2022-08-03T03:36:29;0.93;;;0.93;;
14100;SDS011;7127;49.372;8.166;2022-08-03T03:38:56;0.83;;;0.83;;
14100;SDS011;7127;49.372;8.166;2022-08-03T03:41:23;1.20;;;1.10;;
14100;SDS011;7127;49.372;8.166;2022-08-03T03:43:51;0.90;;;0.90;;
14100;SDS011;7127;49.372;8.166;2022-08-03T03:46:19;1.00;;;1.00;;
14100;SDS011;7127;49.372;8.166;2022-08-03T03:48:46;0.87;;;0.87;;
14100;SDS011;7127;49.372;8.166;2022-08-03T03:51:13;1.10;;;1.00;;
14100;SDS011;7127;49.372;8.166;2022-08-03T03:53:48;1.20;;;1.10;;
14100;SDS011;7127;49.372;8.166;2022-08-03T03:56:20;1.00;;;1.00;;
14100;SDS011;7127;49.372;8.166;2022-08-03T03:58:47;1.00;;;1.00;;
14100;SDS011;7127;49.372;8.166;2022-08-03T04:01:15;1.00;;;0.90;;
14100;SDS011;7127;49.372;8.166;2022-08-03T04:03:43;1.77;;;0.90;;
14100;SDS011;7127;49.372;8.166;2022-08-03T04:06:10;1.20;;;1.10;;
14100;SDS011;7127;49.372;8.166;2022-08-03T04:08:55;1.10;;;1.03;;
14100;SDS011;7127;49.372;8.166;2022-08-03T04:11:40;1.07;;;0.97;;
14100;SDS011;7127;49.372;8.166;2022-08-03T04:14:13;1.10;;;1.00;;
14100;SDS011;7127;49.372;8.166;2022-08-03T04:16:45;1.63;;;0.90;;
14100;SDS011;7127;49.372;8.166;2022-08-03T04:19:16;0.90;;;0.90;;
14100;SDS011;7127;49.372;8.166;2022-08-03T04:21:47;1.30;;;1.20;;
14100;SDS011;7127;49.372;8.166;2022-08-03T04:24:17;1.10;;;1.00;;
14100;SDS011;7127;49.372;8.166;2022-08-03T04:26:47;0.90;;;0.90;;
14100;SDS011;7127;49.372;8.166;2022-08-03T04:29:15;1.20;;;1.10;;
14100;SDS011;7127;49.372;8.166;2022-08-03T04:31:45;1.63;;;0.90;;
14100;SDS011;7127;49.372;8.166;2022-08-03T04:34:13;1.23;;;1.07;;
14100;SDS011;7127;49.372;8.166;2022-08-03T04:36:43;1.20;;;1.10;;
14100;SDS011;7127;49.372;8.166;2022-08-03T04:39:15;0.90;;;0.90;;
14100;SDS011;7127;49.372;8.166;2022-08-03T04:41:48;0.97;;;0.80;;
14100;SDS011;7127;49.372;8.166;2022-08-03T04:44:18;0.90;;;0.90;;
14100;SDS011;7127;49.372;8.166;2022-08-03T04:46:48;1.60;;;1.00;;
14100;SDS011;7127;49.372;8.166;2022-08-03T04:49:15;1.67;;;1.03;;
14100;SDS011;7127;49.372;8.166;2022-08-03T04:51:43;1.13;;;1.07;;
14100;SDS011;7127;49.372;8.166;2022-08-03T04:54:10;1.03;;;0.93;;
14100;SDS011;7127;49.372;8.166;2022-08-03T04:56:38;1.00;;;1.00;;
14100;SDS011;7127;49.372;8.166;2022-08-03T04:59:05;1.00;;;1.00;;
14100;SDS011;7127;49.372;8.166;2022-08-03T05:01:32;1.00;;;0.90;;
14100;SDS011;7127;49.372;8.166;2022-08-03T05:04:01;1.17;;;1.07;;
14100;SDS011;7127;49.372;8.166;2022-08-03T05:06:28;1.10;;;1.00;;
14100;SDS011;7127;49.372;8.166;2022-08-03T05:08:55;1.70;;;1.07;;
14100;SDS011;7127;49.372;8.166;2022-08-03T05:11:22;2.03;;;0.90;;
14100;SDS011;7127;49.372;8.166;2022-08-03T05:13:49;1.20;;;1.00;;
14100;SDS011;7127;49.372;8.166;2022-08-03T05:16:16;1.30;;;1.00;;
14100;SDS011;7127;49.372;8.166;2022-08-03T05:18:43;1.00;;;1.00;;
14100;SDS011;7127;49.372;8.166;2022-08-03T05:21:11;0.90;;;0.90;;
14100;SDS011;7127;49.372;8.166;2022-08-03T05:23:40;0.83;;;0.83;;
14100;SDS011;7127;49.372;8.166;2022-08-03T05:26:08;1.00;;;1.00;;
14100;SDS011;7127;49.372;8.166;2022-08-03T05:28:35;0.97;;;0.93;;
14100;SDS011;7127;49.372;8.166;2022-08-03T05:31:03;1.30;;;1.20;;
14100;SDS011;7127;49.372;8.166;2022-08-03T05:33:30;1.50;;;1.30;;
14100;SDS011;7127;49.372;8.166;2022-08-03T05:35:57;3.13;;;1.27;;
14100;SDS011;7127;49.372;8.166;2022-08-03T05:38:26;2.03;;;1.10;;
14100;SDS011;7127;49.372;8.166;2022-08-03T05:40:53;1.00;;;1.00;;
14100;SDS011;7127;49.372;8.166;2022-08-03T05:43:20;1.30;;;1.10;;
14100;SDS011;7127;49.372;8.166;2022-08-03T05:45:47;1.20;;;1.10;;
14100;SDS011;7127;49.372;8.166;2022-08-03T05:48:14;1.20;;;1.10;;
14100;SDS011;7127;49.372;8.166;2022-08-03T05:50:41;1.30;;;1.20;;
14100;SDS011;7127;49.372;8.166;2022-08-03T05:53:08;2.43;;;1.30;;
14100;SDS011;7127;49.372;8.166;2022-08-03T05:55:36;1.60;;;1.00;;
14100;SDS011;7127;49.372;8.166;2022-08-03T05:58:03;1.30;;;1.20;;
14100;SDS011;7127;49.372;8.166;2022-08-03T06:00:30;1.67;;;1.30;;
14100;SDS011;7127;49.372;8.166;2022-08-03T06:02:57;1.70;;;1.20;;
14100;SDS011;7127;49.372;8.166;2022-08-03T06:05:24;1.10;;;1.00;;
14100;SDS011;7127;49.372;8.166;2022-08-03T06:07:52;1.30;;;1.20;;
14100;SDS011;7127;49.372;8.166;2022-08-03T06:10:19;1.30;;;1.00;;
14100;SDS011;7127;49.372;8.166;2022-08-03T06:12:47;1.00;;;1.00;;
14100;SDS011;7127;49.372;8.166;2022-08-03T06:15:15;1.70;;;1.10;;
14100;SDS011;7127;49.372;8.166;2022-08-03T06:17:46;1.27;;;0.90;;
14100;SDS011;7127;49.372;8.166;2022-08-03T06:20:14;1.10;;;0.97;;
14100;SDS011;7127;49.372;8.166;2022-08-03T06:22:42;3.17;;;1.10;;
14100;SDS011;7127;49.372;8.166;2022-08-03T06:25:09;1.00;;;1.00;;
14100;SDS011;7127;49.372;8.166;2022-08-03T06:27:36;0.97;;;0.97;;
14100;SDS011;7127;49.372;8.166;2022-08-03T06:30:06;0.80;;;0.80;;
14100;SDS011;7127;49.372;8.166;2022-08-03T06:32:35;2.80;;;1.20;;
14100;SDS011;7127;49.372;8.166;2022-08-03T06:35:02;0.80;;;0.77;;
14100;SDS011;7127;49.372;8.166;2022-08-03T06:37:30;2.00;;;1.00;;
14100;SDS011;7127;49.372;8.166;2022-08-03T06:39:57;1.20;;;1.10;;
14100;SDS011;7127;49.372;8.166;2022-08-03T06:42:23;1.13;;;0.93;;
14100;SDS011;7127;49.372;8.166;2022-08-03T06:44:50;1.45;;;1.00;;
14100;SDS011;7127;49.372;8.166;2022-08-03T06:47:19;1.43;;;1.10;;
14100;SDS011;7127;49.372;8.166;2022-08-03T06:49:46;1.13;;;1.02;;
14100;SDS011;7127;49.372;8.166;2022-08-03T06:52:13;1.40;;;1.30;;
14100;SDS011;7127;49.372;8.166;2022-08-03T06:54:39;1.90;;;1.20;;
14100;SDS011;7127;49.372;8.166;2022-08-03T06:57:06;1.13;;;1.02;;
14100;SDS011;7127;49.372;8.166;2022-08-03T06:59:35;3.80;;;1.08;;
14100;SDS011;7127;49.372;8.166;2022-08-03T07:02:02;1.17;;;1.08;;
14100;SDS011;7127;49.372;8.166;2022-08-03T07:04:31;0.80;;;0.70;;
14100;SDS011;7127;49.372;8.166;2022-08-03T07:06:58;1.13;;;0.98;;
14100;SDS011;7127;49.372;8.166;2022-08-03T07:09:25;1.48;;;1.00;;
14100;SDS011;7127;49.372;8.166;2022-08-03T07:11:52;0.85;;;0.85;;
14100;SDS011;7127;49.372;8.166;2022-08-03T07:14:19;1.58;;;0.90;;
14100;SDS011;7127;49.372;8.166;2022-08-03T07:16:46;0.98;;;0.90;;
14100;SDS011;7127;49.372;8.166;2022-08-03T07:19:13;1.20;;;1.02;;
14100;SDS011;7127;49.372;8.166;2022-08-03T07:21:42;1.25;;;1.15;;
14100;SDS011;7127;49.372;8.166;2022-08-03T07:24:09;1.30;;;1.20;;
14100;SDS011;7127;49.372;8.166;2022-08-03T07:26:36;1.10;;;1.00;;
14100;SDS011;7127;49.372;8.166;2022-08-03T07:29:03;0.90;;;0.90;;
14100;SDS011;7127;49.372;8.166;2022-08-03T07:31:30;2.72;;;1.17;;
14100;SDS011;7127;49.372;8.166;2022-08-03T07:33:57;1.00;;;1.00;;
14100;SDS011;7127;49.372;8.166;2022-08-03T07:36:24;1.10;;;1.00;;
14100;SDS011;7127;49.372;8.166;2022-08-03T07:38:53;0.95;;;0.95;;
14100;SDS011;7127;49.372;8.166;2022-08-03T07:41:22;1.30;;;1.10;;
14100;SDS011;7127;49.372;8.166;2022-08-03T07:43:49;1.00;;;0.90;;
14100;SDS011;7127;49.372;8.166;2022-08-03T07:46:16;1.45;;;1.05;;
14100;SDS011;7127;49.372;8.166;2022-08-03T07:48:43;0.80;;;0.80;;
14100;SDS011;7127;49.372;8.166;2022-08-03T07:51:10;0.70;;;0.70;;
14100;SDS011;7127;49.372;8.166;2022-08-03T07:53:36;1.08;;;1.00;;
14100;SDS011;7127;49.372;8.166;2022-08-03T07:56:05;0.88;;;0.88;;
14100;SDS011;7127;49.372;8.166;2022-08-03T07:58:33;0.70;;;0.70;;
14100;SDS011;7127;49.372;8.166;2022-08-03T08:01:00;0.90;;;0.90;;
14100;SDS011;7127;49.372;8.166;2022-08-03T08:03:27;1.48;;;0.80;;
14100;SDS011;7127;49.372;8.166;2022-08-03T08:05:54;0.80;;;0.80;;
14100;SDS011;7127;49.372;8.166;2022-08-03T08:08:21;3.00;;;1.13;;
14100;SDS011;7127;49.372;8.166;2022-08-03T08:10:48;1.10;;;1.00;;
14100;SDS011;7127;49.372;8.166;2022-08-03T08:13:17;1.33;;;1.10;;
14100;SDS011;7127;49.372;8.166;2022-08-03T08:15:43;1.38;;;1.20;;
14100;SDS011;7127;49.372;8.166;2022-08-03T08:18:10;1.27;;;1.02;;
14100;SDS011;7127;49.372;8.166;2022-08-03T08:20:37;1.40;;;1.02;;
14100;SDS011;7127;49.372;8.166;2022-08-03T08:23:05;0.90;;;0.90;;
14100;SDS011;7127;49.372;8.166;2022-08-03T08:25:33;1.27;;;0.90;;
14100;SDS011;7127;49.372;8.166;2022-08-03T08:28:00;1.38;;;1.20;;
14100;SDS011;7127;49.372;8.166;2022-08-03T08:30:30;0.98;;;0.88;;
14100;SDS011;7127;49.372;8.166;2022-08-03T08:32:58;1.52;;;1.10;;
14100;SDS011;7127;49.372;8.166;2022-08-03T08:35:25;1.20;;;0.90;;
14100;SDS011;7127;49.372;8.166;2022-08-03T08:37:52;1.70;;;1.00;;
14100;SDS011;7127;49.372;8.166;2022-08-03T08:40:19;0.95;;;0.88;;
14100;SDS011;7127;49.372;8.166;2022-08-03T08:42:47;0.88;;;0.88;;
14100;SDS011;7127;49.372;8.166;2022-08-03T08:45:14;1.40;;;1.00;;
14100;SDS011;7127;49.372;8.166;2022-08-03T08:47:44;0.98;;;0.93;;
14100;SDS011;7127;49.372;8.166;2022-08-03T08:50:12;1.20;;;1.10;;
14100;SDS011;7127;49.372;8.166;2022-08-03T08:52:39;1.25;;;1.10;;
14100;SDS011;7127;49.372;8.166;2022-08-03T08:55:07;1.13;;;0.90;;
14100;SDS011;7127;49.372;8.166;2022-08-03T08:57:36;2.22;;;1.15;;
14100;SDS011;7127;49.372;8.166;2022-08-03T09:00:08;2.78;;;1.20;;
14100;SDS011;7127;49.372;8.166;2022-08-03T09:02:38;2.58;;;1.08;;
14100;SDS011;7127;49.372;8.166;2022-08-03T09:05:09;2.05;;;1.20;;
14100;SDS011;7127;49.372;8.166;2022-08-03T09:07:38;0.95;;;0.95;;
14100;SDS011;7127;49.372;8.166;2022-08-03T09:10:05;1.33;;;1.05;;
14100;SDS011;7127;49.372;8.166;2022-08-03T09:12:36;0.90;;;0.90;;
14100;SDS011;7127;49.372;8.166;2022-08-03T09:15:15;0.95;;;0.90;;
14100;SDS011;7127;49.372;8.166;2022-08-03T09:17:47;1.10;;;1.00;;
14100;SDS011;7127;49.372;8.166;2022-08-03T09:20:16;1.20;;;1.05;;
14100;SDS011;7127;49.372;8.166;2022-08-03T09:22:51;1.10;;;1.00;;
14100;SDS011;7127;49.372;8.166;2022-08-03T09:25:25;0.82;;;0.82;;
14100;SDS011;7127;49.372;8.166;2022-08-03T09:27:53;4.13;;;1.00;;
14100;SDS011;7127;49.372;8.166;2022-08-03T09:30:28;1.27;;;1.17;;
14100;SDS011;7127;49.372;8.166;2022-08-03T09:32:58;1.20;;;1.10;;
14100;SDS011;7127;49.372;8.166;2022-08-03T09:35:27;0.85;;;0.85;;
14100;SDS011;7127;49.372;8.166;2022-08-03T09:38:10;1.10;;;1.00;;
14100;SDS011;7127;49.372;8.166;2022-08-03T09:40:38;2.17;;;0.93;;
14100;SDS011;7127;49.372;8.166;2022-08-03T09:43:06;1.35;;;1.10;;
14100;SDS011;7127;49.372;8.166;2022-08-03T09:45:34;1.75;;;1.10;;
14100;SDS011;7127;49.372;8.166;2022-08-03T09:48:20;1.83;;;1.15;;
14100;SDS011;7127;49.372;8.166;2022-08-03T09:50:51;1.17;;;1.08;;
14100;SDS011;7127;49.372;8.166;2022-08-03T09:53:19;1.13;;;0.98;;
14100;SDS011;7127;49.372;8.166;2022-08-03T09:55:53;1.27;;;1.17;;
14100;SDS011;7127;49.372;8.166;2022-08-03T09:58:22;3.08;;;1.02;;
14100;SDS011;7127;49.372;8.166;2022-08-03T10:00:53;0.90;;;0.90;;
14100;SDS011;7127;49.372;8.166;2022-08-03T10:03:22;1.33;;;1.23;;
14100;SDS011;7127;49.372;8.166;2022-08-03T10:05:53;1.65;;;1.00;;
14100;SDS011;7127;49.372;8.166;2022-08-03T10:08:21;2.97;;;1.30;;
14100;SDS011;7127;49.372;8.166;2022-08-03T10:10:50;1.73;;;1.10;;
14100;SDS011;7127;49.372;8.166;2022-08-03T10:13:19;1.20;;;1.10;;
14100;SDS011;7127;49.372;8.166;2022-08-03T10:15:47;1.13;;;1.02;;
14100;SDS011;7127;49.372;8.166;2022-08-03T10:18:14;1.65;;;1.20;;
14100;SDS011;7127;49.372;8.166;2022-08-03T10:20:43;2.97;;;1.30;;
14100;SDS011;7127;49.372;8.166;2022-08-03T10:23:16;1.13;;;1.02;;
14100;SDS011;7127;49.372;8.166;2022-08-03T10:25:45;2.28;;;1.27;;
14100;SDS011;7127;49.372;8.166;2022-08-03T10:28:14;1.58;;;1.25;;
14100;SDS011;7127;49.372;8.166;2022-08-03T10:30:47;2.40;;;1.40;;
14100;SDS011;7127;49.372;8.166;2022-08-03T10:33:17;1.40;;;1.30;;
14100;SDS011;7127;49.372;8.166;2022-08-03T10:35:46;1.30;;;1.15;;
14100;SDS011;7127;49.372;8.166;2022-08-03T10:38:18;1.65;;;1.55;;
14100;SDS011;7127;49.372;8.166;2022-08-03T10:40:49;1.90;;;1.55;;
14100;SDS011;7127;49.372;8.166;2022-08-03T10:43:19;2.17;;;1.17;;
14100;SDS011;7127;49.372;8.166;2022-08-03T10:45:50;1.17;;;1.08;;
14100;SDS011;7127;49.372;8.166;2022-08-03T10:48:17;1.20;;;1.10;;
14100;SDS011;7127;49.372;8.166;2022-08-03T10:50:45;1.30;;;1.17;;
14100;SDS011;7127;49.372;8.166;2022-08-03T10:53:14;2.03;;;1.02;;
14100;SDS011;7127;49.372;8.166;2022-08-03T10:55:43;1.48;;;1.38;;
14100;SDS011;7127;49.372;8.166;2022-08-03T10:58:50;2.15;;;1.20;;
14100;SDS011;7127;49.372;8.166;2022-08-03T11:01:18;1.55;;;1.00;;
14100;SDS011;7127;49.372;8.166;2022-08-03T11:04:15;1.20;;;1.10;;
14100;SDS011;7127;49.372;8.166;2022-08-03T11:06:44;1.10;;;1.00;;
14100;SDS011;7127;49.372;8.166;2022-08-03T11:09:18;1.17;;;1.08;;
14100;SDS011;7127;49.372;8.166;2022-08-03T11:11:48;1.20;;;1.10;;
14100;SDS011;7127;49.372;8.166;2022-08-03T11:14:16;1.05;;;1.00;;
14100;SDS011;7127;49.372;8.166;2022-08-03T11:16:44;1.38;;;1.10;;
14100;SDS011;7127;49.372;8.166;2022-08-03T11:19:14;1.05;;;0.95;;
14100;SDS011;7127;49.372;8.166;2022-08-03T11:21:53;1.10;;;0.70;;
14100;SDS011;7127;49.372;8.166;2022-08-03T11:27:24;1.00;;;1.00;;
14100;SDS011;7127;49.372;8.166;2022-08-03T11:29:53;0.85;;;0.85;;
14100;SDS011;7127;49.372;8.166;2022-08-03T11:35:22;0.90;;;0.90;;
14100;SDS011;7127;49.372;8.166;2022-08-03T11:40:36;0.80;;;0.80;;
14100;SDS011;7127;49.372;8.166;2022-08-03T11:43:07;0.90;;;0.90;;
14100;SDS011;7127;49.372;8.166;2022-08-03T11:45:35;1.02;;;1.00;;
14100;SDS011;7127;49.372;8.166;2022-08-03T11:48:11;1.05;;;0.95;;
14100;SDS011;7127;49.372;8.166;2022-08-03T11:50:40;1.15;;;0.60;;
14100;SDS011;7127;49.372;8.166;2022-08-03T11:53:12;0.80;;;0.80;;
14100;SDS011;7127;49.372;8.166;2022-08-03T11:55:41;0.63;;;0.63;;
14100;SDS011;7127;49.372;8.166;2022-08-03T11:58:20;0.80;;;0.80;;
14100;SDS011;7127;49.372;8.166;2022-08-03T12:00:48;0.90;;;0.90;;
14100;SDS011;7127;49.372;8.166;2022-08-03T12:03:16;0.88;;;0.77;;
14100;SDS011;7127;49.372;8.166;2022-08-03T12:05:46;0.80;;;0.80;;
14100;SDS011;7127;49.372;8.166;2022-08-03T12:08:14;0.80;;;0.80;;
14100;SDS011;7127;49.372;8.166;2022-08-03T12:10:46;1.00;;;1.00;;
14100;SDS011;7127;49.372;8.166;2022-08-03T12:13:15;1.10;;;1.00;;
14100;SDS011;7127;49.372;8.166;2022-08-03T12:15:47;1.10;;;1.00;;
14100;SDS011;7127;49.372;8.166;2022-08-03T12:18:16;0.70;;;0.70;;
14100;SDS011;7127;49.372;8.166;2022-08-03T12:20:46;0.80;;;0.80;;
14100;SDS011;7127;49.372;8.166;2022-08-03T12:23:14;0.70;;;0.70;;
14100;SDS011;7127;49.372;8.166;2022-08-03T12:25:42;0.70;;;0.70;;
14100;SDS011;7127;49.372;8.166;2022-08-03T12:28:11;0.75;;;0.75;;
14100;SDS011;7127;49.372;8.166;2022-08-03T12:30:44;0.70;;;0.70;;
14100;SDS011;7127;49.372;8.166;2022-08-03T12:33:13;0.70;;;0.70;;
14100;SDS011;7127;49.372;8.166;2022-08-03T12:35:41;1.40;;;0.50;;
14100;SDS011;7127;49.372;8.166;2022-08-03T12:38:09;0.70;;;0.70;;
14100;SDS011;7127;49.372;8.166;2022-08-03T12:40:36;0.80;;;0.80;;
14100;SDS011;7127;49.372;8.166;2022-08-03T12:43:09;0.90;;;0.90;;
14100;SDS011;7127;49.372;8.166;2022-08-03T12:45:37;0.77;;;0.77;;
14100;SDS011;7127;49.372;8.166;2022-08-03T12:48:09;0.80;;;0.80;;
14100;SDS011;7127;49.372;8.166;2022-08-03T12:50:37;0.50;;;0.50;;
14100;SDS011;7127;49.372;8.166;2022-08-03T12:53:06;0.70;;;0.70;;
14100;SDS011;7127;49.372;8.166;2022-08-03T12:55:34;0.75;;;0.75;;
14100;SDS011;7127;49.372;8.166;2022-08-03T12:58:02;0.50;;;0.50;;
14100;SDS011;7127;49.372;8.166;2022-08-03T13:00:30;0.80;;;0.80;;
14100;SDS011;7127;49.372;8.166;2022-08-03T13:02:58;1.77;;;0.80;;
14100;SDS011;7127;49.372;8.166;2022-08-03T13:05:29;0.88;;;0.73;;
14100;SDS011;7127;49.372;8.166;2022-08-03T13:07:56;1.23;;;0.80;;
14100;SDS011;7127;49.372;8.166;2022-08-03T13:10:27;0.60;;;0.60;;
14100;SDS011;7127;49.372;8.166;2022-08-03T13:12:55;0.70;;;0.70;;
14100;SDS011;7127;49.372;8.166;2022-08-03T13:15:24;0.50;;;0.50;;
14100;SDS011;7127;49.372;8.166;2022-08-03T13:17:53;0.70;;;0.70;;
14100;SDS011;7127;49.372;8.166;2022-08-03T13:20:20;0.52;;;0.52;;
14100;SDS011;7127;49.372;8.166;2022-08-03T13:22:49;0.77;;;0.77;;
14100;SDS011;7127;49.372;8.166;2022-08-03T13:25:17;1.13;;;0.80;;
14100;SDS011;7127;49.372;8.166;2022-08-03T13:27:44;0.60;;;0.60;;
14100;SDS011;7127;49.372;8.166;2022-08-03T13:30:11;0.50;;;0.50;;
14100;SDS011;7127;49.372;8.166;2022-08-03T13:32:38;0.50;;;0.50;;
14100;SDS011;7127;49.372;8.166;2022-08-03T13:35:06;0.60;;;0.60;;
14100;SDS011;7127;49.372;8.166;2022-08-03T13:37:34;0.52;;;0.52;;
14100;SDS011;7127;49.372;8.166;2022-08-03T13:40:03;0.40;;;0.40;;
14100;SDS011;7127;49.372;8.166;2022-08-03T13:42:33;0.63;;;0.63;;
14100;SDS011;7127;49.372;8.166;2022-08-03T13:45:01;0.82;;;0.60;;
14100;SDS011;7127;49.372;8.166;2022-08-03T13:47:28;1.08;;;0.60;;
14100;SDS011;7127;49.372;8.166;2022-08-03T13:49:55;0.60;;;0.60;;
14100;SDS011;7127;49.372;8.166;2022-08-03T13:52:22;0.52;;;0.52;;
14100;SDS011;7127;49.372;8.166;2022-08-03T13:54:49;0.50;;;0.50;;
14100;SDS011;7127;49.372;8.166;2022-08-03T13:57:18;1.10;;;0.60;;
14100;SDS011;7127;49.372;8.166;2022-08-03T13:59:45;0.60;;;0.60;;
14100;SDS011;7127;49.372;8.166;2022-08-03T14:02:13;0.80;;;0.80;;
14100;SDS011;7127;49.372;8.166;2022-08-03T14:04:40;1.13;;;0.60;;
14100;SDS011;7127;49.372;8.166;2022-08-03T14:07:07;0.75;;;0.75;;
14100;SDS011;7127;49.372;8.166;2022-08-03T14:09:34;0.50;;;0.50;;
14100;SDS011;7127;49.372;8.166;2022-08-03T14:12:01;0.95;;;0.75;;
14100;SDS011;7127;49.372;8.166;2022-08-03T14:14:30;2.15;;;1.00;;
14100;SDS011;7127;49.372;8.166;2022-08-03T14:16:57;0.70;;;0.70;;
14100;SDS011;7127;49.372;8.166;2022-08-03T14:19:24;0.55;;;0.47;;
14100;SDS011;7127;49.372;8.166;2022-08-03T14:21:51;0.70;;;0.70;;
14100;SDS011;7127;49.372;8.166;2022-08-03T14:24:17;0.63;;;0.63;;
14100;SDS011;7127;49.372;8.166;2022-08-03T14:26:44;1.00;;;0.90;;
14100;SDS011;7127;49.372;8.166;2022-08-03T14:29:11;1.00;;;1.00;;
14100;SDS011;7127;49.372;8.166;2022-08-03T14:31:40;0.85;;;0.85;;
14100;SDS011;7127;49.372;8.166;2022-08-03T14:34:07;1.02;;;0.90;;
14100;SDS011;7127;49.372;8.166;2022-08-03T14:36:33;1.30;;;0.90;;
14100;SDS011;7127;49.372;8.166;2022-08-03T14:39:00;0.82;;;0.82;;
14100;SDS011;7127;49.372;8.166;2022-08-03T14:41:27;0.80;;;0.80;;
14100;SDS011;7127;49.372;8.166;2022-08-03T14:43:54;0.70;;;0.70;;
14100;SDS011;7127;49.372;8.166;2022-08-03T14:46:21;0.85;;;0.70;;
14100;SDS011;7127;49.372;8.166;2022-08-03T14:48:50;0.77;;;0.75;;
14100;SDS011;7127;49.372;8.166;2022-08-03T14:51:17;0.60;;;0.60;;
14100;SDS011;7127;49.372;8.166;2022-08-03T14:53:44;0.50;;;0.50;;
14100;SDS011;7127;49.372;8.166;2022-08-03T14:56:11;0.50;;;0.50;;
14100;SDS011;7127;49.372;8.166;2022-08-03T14:58:38;0.63;;;0.43;;
14100;SDS011;7127;49.372;8.166;2022-08-03T15:01:05;0.50;;;0.50;;
14100;SDS011;7127;49.372;8.166;2022-08-03T15:03:32;0.50;;;0.50;;
14100;SDS011;7127;49.372;8.166;2022-08-03T15:06:01;0.52;;;0.52;;
14100;SDS011;7127;49.372;8.166;2022-08-03T15:08:28;0.50;;;0.50;;
14100;SDS011;7127;49.372;8.166;2022-08-03T15:10:55;0.55;;;0.55;;
14100;SDS011;7127;49.372;8.166;2022-08-03T15:13:21;0.60;;;0.60;;
14100;SDS011;7127;49.372;8.166;2022-08-03T15:15:49;0.40;;;0.40;;
14100;SDS011;7127;49.372;8.166;2022-08-03T15:18:16;0.70;;;0.70;;
14100;SDS011;7127;49.372;8.166;2022-08-03T15:20:44;0.60;;;0.60;;
14100;SDS011;7127;49.372;8.166;2022-08-03T15:23:14;0.57;;;0.57;;